Dardanelle, AR

3:00 PM CDT on September 03, 2015 (GMT -0500)
APRSWXNET | | Change Station
CLOSE
Current Station
Personal Weather Station
Location: Russellville, AR
Elevation: 435 ft
Nearby Weather Stations

Elev 435 ft 35.22 °N, 93.11 °W | Updated 21 minutes ago

Partly Cloudy
Partly Cloudy
92 °F
Feels Like 98 °F
N
2
Wind Variable Wind from West
Gusts 5.0 mph

Today
High -- | Low -- °F
--% Chance of Precip.
Yesterday
High -- | Low -- °F
Precip. -- in
6:46 AM 7:37 PM
Waning Gibbous, 67% visible
Pressure 29.93 in
Visibility 10.0 miles
Clouds Clear
Heat Index 98 °F
Dew Point 70 °F
Humidity 49%
Rainfall in
Snow Depth Not available.
UV 8 out of 12
Pollen 10.00 out of 12
Air Quality Not available.
Flu Activity Not available.
METAR KRUE 031953Z AUTO VRB04KT 10SM CLR 34/19 A2995 RMK AO2 SLP133 T03390189
Pressure 29.93 in
Visibility 10.0 miles
Clouds Clear
Heat Index 98 °F
Dew Point 70 °F
Humidity 49%
Rainfall in
Snow Depth Not available.
UV 8 out of 12
Pollen 10.00 out of 12
Air Quality Not available.
Flu Activity Not available.
METAR KRUE 031953Z AUTO VRB04KT 10SM CLR 34/19 A2995 RMK AO2 SLP133 T03390189

10-Day Weather Forecast

×

Almanac

Astronomy

Sep. 03, 2015 Rise Set
Actual Time
Civil Twilight
Nautical Twilight
Astronomical Twilight
Moon
Length of Visible Light
Length of Day
Tomorrow will be .
, % of the Moon is Illuminated

Today's Extremes

State Highs State Lows

Community

WunderPhotos

Upload Photos

1,852,019 photos uploaded!

WunderBlogs® & News

Nearby

Air Quality

  Air Quality AQ Index Pollutant
Not available.

Snow Depth

Station Depth Elevation

Earthquake Activity

City Distance Mag. Time & Date
Minimum magnitude displayed is 2.5.

Coastal Water Temperatures

Place Temperature

Stations

Nearby Weather Stations

Station Location Temp. Windchill Dew Point Humidity Wind Precip. Elev Updated Type